Time;durP1;ratioP1;P1;durP2;ratioP2;P2;SDS_P1;SDS_P2;PMS_P1;PMS_P2;Temp;Humidity;BMP_temperature;BMP_pressure;BME280_temperature;BME280_humidity;BME280_pressure;Samples;Min_cycle;Max_cycle;Signal;HPM_P1;HPM_P2
2021/09/09 00:00:39;;;;;;;15.15;9.82;;;;;;;12.15;87.11;90778.06;4902043;29;20019;-91
2021/09/09 00:03:05;;;;;;;14.40;9.80;;;;;;;12.20;86.86;90775.19;4917812;29;20020;-91
2021/09/09 00:05:31;;;;;;;16.98;10.70;;;;;;;12.34;87.01;90772.13;4918098;29;20035;-91
2021/09/09 00:07:56;;;;;;;15.23;9.38;;;;;;;12.38;85.96;90770.34;4917803;29;20043;-91
2021/09/09 00:10:22;;;;;;;17.02;10.15;;;;;;;12.28;86.24;90781.31;4917796;29;20039;-91
2021/09/09 00:12:47;;;;;;;15.27;9.90;;;;;;;12.08;86.43;90777.16;4918092;29;20035;-91
2021/09/09 00:15:13;;;;;;;14.68;9.23;;;;;;;12.09;86.11;90776.06;4920880;29;20023;-90
2021/09/09 00:17:39;;;;;;;15.90;9.85;;;;;;;12.03;86.54;90780.78;4921043;29;20027;-91
2021/09/09 00:20:06;;;;;;;16.30;10.98;;;;;;;11.97;87.33;90776.91;4920816;29;20047;-91
2021/09/09 00:22:32;;;;;;;16.02;10.43;;;;;;;11.90;88.40;90779.38;4921352;29;20031;-90
2021/09/09 00:24:57;;;;;;;18.52;10.80;;;;;;;11.98;88.85;90777.66;4920641;29;20027;-91
2021/09/09 00:27:23;;;;;;;18.83;10.30;;;;;;;12.17;88.11;90775.88;4920541;29;20372;-90
2021/09/09 00:29:48;;;;;;;14.40;9.82;;;;;;;12.07;86.24;90767.81;4920854;29;20436;-90
2021/09/09 00:32:13;;;;;;;15.32;10.15;;;;;;;12.08;86.54;90771.94;4917106;29;20032;-91
2021/09/09 00:34:39;;;;;;;14.32;9.50;;;;;;;11.85;87.61;90779.63;4902164;29;20484;-91
2021/09/09 00:37:04;;;;;;;14.77;10.73;;;;;;;11.75;88.10;90775.63;4913056;29;20671;-90
2021/09/09 00:39:30;;;;;;;13.82;9.52;;;;;;;11.98;88.42;90764.59;4920334;29;20027;-90
2021/09/09 00:41:55;;;;;;;15.75;10.40;;;;;;;12.08;87.78;90761.47;4920763;29;20034;-91
2021/09/09 00:44:25;;;;;;;20.00;11.52;;;;;;;11.95;88.30;90758.97;4920678;29;20026;-91
2021/09/09 00:46:58;;;;;;;13.82;10.20;;;;;;;11.86;88.69;90753.16;4921292;29;20082;-90
2021/09/09 00:49:23;;;;;;;17.70;10.48;;;;;;;11.86;88.22;90753.16;4951331;28;20034;-89
2021/09/09 00:51:49;;;;;;;18.88;10.45;;;;;;;12.05;87.51;90751.69;4901834;29;20036;-90
2021/09/09 00:54:14;;;;;;;13.90;10.27;;;;;;;12.00;87.89;90749.38;4911766;29;20494;-90
2021/09/09 00:56:40;;;;;;;14.57;10.02;;;;;;;11.92;87.68;90741.38;4905549;29;20024;-91
2021/09/09 00:59:05;;;;;;;15.77;10.50;;;;;;;11.88;87.68;90743.16;4905296;29;20038;-90
2021/09/09 01:01:30;;;;;;;15.32;9.45;;;;;;;11.81;86.38;90750.03;4905320;29;20090;-90
2021/09/09 01:03:56;;;;;;;17.05;10.10;;;;;;;11.67;88.36;90734.81;4921338;29;20082;-91
2021/09/09 01:06:21;;;;;;;15.32;10.88;;;;;;;11.62;88.49;90737.66;4905218;29;20541;-91
2021/09/09 01:08:47;;;;;;;15.65;10.65;;;;;;;11.64;88.87;90735.50;4920643;29;20107;-90
2021/09/09 01:11:12;;;;;;;18.63;10.60;;;;;;;11.61;88.54;90736.16;4927661;29;20026;-91
2021/09/09 01:13:38;;;;;;;19.15;11.70;;;;;;;11.55;88.86;90727.06;4923988;29;20031;-90
2021/09/09 01:16:04;;;;;;;14.50;9.90;;;;;;;11.61;88.30;90723.09;4923737;29;20038;-91
2021/09/09 01:18:29;;;;;;;16.13;11.05;;;;;;;11.67;88.11;90727.75;4920795;29;20618;-89
2021/09/09 01:20:55;;;;;;;15.80;10.57;;;;;;;11.60;87.77;90732.78;4908398;29;20043;-91
2021/09/09 01:23:20;;;;;;;18.33;10.85;;;;;;;11.54;88.78;90736.75;4920451;29;20391;-89
2021/09/09 01:25:45;;;;;;;20.67;10.85;;;;;;;11.52;88.43;90732.94;4923595;29;20390;-90
2021/09/09 01:28:11;;;;;;;15.90;10.75;;;;;;;11.53;88.38;90731.88;4919909;29;20028;-90
2021/09/09 01:30:37;;;;;;;15.52;10.45;;;;;;;11.42;88.42;90732.38;4920257;29;20418;-91
2021/09/09 01:33:03;;;;;;;17.70;10.02;;;;;;;11.40;88.27;90739.03;4920304;29;20032;-91
2021/09/09 01:35:28;;;;;;;24.17;10.85;;;;;;;11.47;87.42;90734.72;4920439;29;20032;-90
2021/09/09 01:37:54;;;;;;;16.33;9.75;;;;;;;11.25;87.19;90730.09;4920028;29;20028;-90
2021/09/09 01:40:40;;;;;;;18.20;11.10;;;;;;;11.10;88.92;90728.25;4933775;29;20031;-90
2021/09/09 01:43:05;;;;;;;16.50;10.88;;;;;;;11.17;89.83;90720.59;4938748;29;20036;-90
2021/09/09 01:45:30;;;;;;;15.68;10.52;;;;;;;11.29;89.25;90720.50;4923525;28;20039;-91
2021/09/09 01:47:56;;;;;;;19.90;11.75;;;;;;;11.37;89.01;90714.34;4923253;29;20039;-90
2021/09/09 01:50:21;;;;;;;17.65;10.80;;;;;;;11.32;89.13;90725.06;4923604;29;20023;-89
2021/09/09 01:52:47;;;;;;;15.85;10.98;;;;;;;11.28;89.51;90713.78;4936981;29;20035;-90
2021/09/09 01:55:12;;;;;;;14.75;10.82;;;;;;;11.42;88.76;90710.75;4923170;29;20023;-90
2021/09/09 01:57:38;;;;;;;16.20;9.70;;;;;;;11.39;87.81;90716.66;4922943;29;20027;-91
2021/09/09 02:00:04;;;;;;;16.13;11.32;;;;;;;11.30;89.71;90722.00;4949242;23;21656;-89
2021/09/09 02:02:30;;;;;;;15.70;10.85;;;;;;;11.37;88.39;90719.56;4942691;28;20123;-90
2021/09/09 02:04:55;;;;;;;22.48;10.85;;;;;;;11.33;89.00;90710.91;4941416;28;20026;-88
2021/09/09 02:07:20;;;;;;;16.38;10.45;;;;;;;11.39;87.79;90714.03;4973798;28;20034;-90
2021/09/09 02:09:46;;;;;;;17.13;10.90;;;;;;;11.37;88.49;90713.59;4974050;28;20031;-90
2021/09/09 02:12:12;;;;;;;18.75;10.57;;;;;;;11.29;88.30;90707.47;4973738;28;20018;-90
2021/09/09 02:14:37;;;;;;;18.55;11.32;;;;;;;11.17;88.52;90700.47;4939519;28;20484;-91
2021/09/09 02:17:03;;;;;;;17.13;10.93;;;;;;;11.18;88.31;90707.22;4954286;29;20094;-89
2021/09/09 02:19:28;;;;;;;16.52;10.32;;;;;;;11.10;87.53;90704.78;4954438;29;20054;-90
2021/09/09 02:21:54;;;;;;;16.40;10.75;;;;;;;11.10;88.35;90702.91;4922334;29;20034;-90
2021/09/09 02:24:19;;;;;;;15.52;9.98;;;;;;;11.11;88.42;90701.06;4954646;29;20030;-91
2021/09/09 02:26:44;;;;;;;16.25;10.30;;;;;;;11.14;87.88;90695.94;4970396;28;20046;-88
2021/09/09 02:29:10;;;;;;;15.70;10.27;;;;;;;11.25;88.17;90701.41;4954235;28;20027;-90
2021/09/09 02:31:35;;;;;;;20.10;10.48;;;;;;;11.23;87.18;90699.13;4922342;28;20164;-90
2021/09/09 02:34:01;;;;;;;18.02;10.55;;;;;;;11.27;86.58;90698.44;4922821;29;20023;-90
2021/09/09 02:36:26;;;;;;;16.90;10.05;;;;;;;11.39;86.82;90698.38;4949650;29;20031;-90
2021/09/09 02:38:51;;;;;;;17.92;9.98;;;;;;;11.41;86.70;90693.56;4921868;29;20125;-90
2021/09/09 02:41:17;;;;;;;16.20;10.15;;;;;;;11.54;86.10;90691.63;4938417;29;20395;-90
2021/09/09 02:43:42;;;;;;;18.80;10.98;;;;;;;11.25;86.41;90693.59;4953984;28;20395;-90
2021/09/09 02:46:08;;;;;;;19.33;11.40;;;;;;;11.21;86.92;90692.75;4938027;29;20019;-90
2021/09/09 02:48:33;;;;;;;18.17;11.07;;;;;;;11.42;85.43;90695.84;4953599;29;20443;-89
2021/09/09 02:50:59;;;;;;;18.58;11.13;;;;;;;11.40;85.51;90700.63;4954652;29;20640;-90
2021/09/09 02:53:24;;;;;;;17.17;11.15;;;;;;;11.65;84.71;90703.06;4953800;28;20498;-90
2021/09/09 02:55:49;;;;;;;15.70;10.15;;;;;;;11.68;84.45;90697.91;4930991;29;20414;-91
2021/09/09 02:58:15;;;;;;;17.45;10.10;;;;;;;11.84;83.67;90695.31;4936926;29;20054;-90
2021/09/09 03:00:40;;;;;;;16.15;10.02;;;;;;;11.85;83.87;90702.06;4964445;28;20082;-90
2021/09/09 03:03:06;;;;;;;16.00;10.27;;;;;;;11.78;84.35;90701.88;4972572;28;20030;-89
2021/09/09 03:05:31;;;;;;;18.77;10.15;;;;;;;11.82;84.30;90697.47;4940785;28;20420;-90
2021/09/09 03:07:56;;;;;;;17.13;10.07;;;;;;;11.74;84.52;90690.59;4940542;28;20038;-90
2021/09/09 03:10:22;;;;;;;19.88;10.38;;;;;;;12.03;83.83;90694.59;4956746;28;20046;-90
2021/09/09 03:12:47;;;;;;;15.60;9.70;;;;;;;11.91;83.81;90698.09;4956721;28;20019;-89
2021/09/09 03:15:13;;;;;;;16.85;10.18;;;;;;;11.81;84.38;90701.19;4972697;28;20037;-90
2021/09/09 03:17:38;;;;;;;23.58;11.48;;;;;;;12.00;83.63;90692.66;4956422;28;20026;-91
2021/09/09 03:20:04;;;;;;;17.17;10.20;;;;;;;12.22;82.74;90693.84;4973646;28;20023;-89
2021/09/09 03:22:30;;;;;;;15.38;9.90;;;;;;;12.37;81.55;90700.91;4972705;28;20023;-90
2021/09/09 03:24:55;;;;;;;15.88;9.65;;;;;;;12.16;82.21;90695.25;4956521;28;20026;-90
2021/09/09 03:27:20;;;;;;;16.85;10.50;;;;;;;11.96;83.60;90692.59;4937135;29;20035;-90
2021/09/09 03:29:46;;;;;;;13.90;9.57;;;;;;;11.89;83.89;90697.66;4937027;29;20483;-90
2021/09/09 03:32:12;;;;;;;17.63;10.05;;;;;;;12.03;82.94;90689.38;4947177;29;20369;-90
2021/09/09 03:34:37;;;;;;;18.88;10.40;;;;;;;11.92;83.60;90691.00;4953084;28;20031;-91
2021/09/09 03:37:03;;;;;;;17.60;10.15;;;;;;;11.96;83.20;90691.84;4952960;28;20046;-88
2021/09/09 03:39:28;;;;;;;23.02;9.75;;;;;;;11.88;83.37;90688.31;4937078;28;20484;-90
2021/09/09 03:41:54;;;;;;;17.63;9.40;;;;;;;11.75;83.99;90686.88;4969044;28;20035;-90
2021/09/09 03:44:19;;;;;;;15.23;9.75;;;;;;;11.72;84.15;90684.94;4937089;28;20027;-90
2021/09/09 03:46:44;;;;;;;17.90;10.05;;;;;;;11.69;84.55;90688.97;4936619;29;20030;-90
2021/09/09 03:49:10;;;;;;;17.90;11.10;;;;;;;11.63;85.10;90690.38;4936729;28;20034;-90
2021/09/09 03:51:35;;;;;;;19.05;10.18;;;;;;;11.51;85.53;90687.09;4953816;28;20552;-90
2021/09/09 03:54:01;;;;;;;16.75;10.38;;;;;;;11.69;84.45;90698.69;4952715;29;20472;-91
2021/09/09 03:56:26;;;;;;;15.52;10.27;;;;;;;11.66;85.31;90684.47;4952730;28;20538;-90
2021/09/09 03:58:52;;;;;;;15.20;9.70;;;;;;;11.59;85.42;90691.34;4936412;28;20035;-90
2021/09/09 04:01:17;;;;;;;17.50;10.40;;;;;;;11.85;84.59;90686.38;4937123;29;20487;-90
2021/09/09 04:03:45;;;;;;;16.00;9.45;;;;;;;12.09;82.75;90689.88;4937138;29;20031;-90
2021/09/09 04:06:10;;;;;;;14.57;10.00;;;;;;;11.88;83.63;90693.53;4937087;29;20487;-90
2021/09/09 04:08:36;;;;;;;13.98;9.30;;;;;;;11.72;83.92;90690.91;4920428;29;20027;-90
2021/09/09 04:11:01;;;;;;;17.65;10.27;;;;;;;11.59;84.50;90693.97;4952731;28;20021;-91
2021/09/09 04:13:26;;;;;;;15.25;9.75;;;;;;;11.60;84.63;90701.47;4953786;28;20104;-90
2021/09/09 04:15:52;;;;;;;18.73;10.40;;;;;;;11.46;85.43;90696.69;4936679;29;20038;-90
2021/09/09 04:18:17;;;;;;;15.00;9.80;;;;;;;11.62;84.59;90696.66;4936201;29;20411;-90
2021/09/09 04:20:43;;;;;;;16.38;10.27;;;;;;;11.77;84.73;90699.63;4952302;28;20507;-90
2021/09/09 04:23:08;;;;;;;22.63;10.82;;;;;;;11.92;84.37;90699.59;4952581;28;20030;-90
2021/09/09 04:25:33;;;;;;;17.20;10.68;;;;;;;11.89;84.75;90697.66;4920849;29;20033;-90
2021/09/09 04:27:59;;;;;;;19.17;10.90;;;;;;;11.85;84.76;90696.84;4952372;28;20749;-90
2021/09/09 04:30:24;;;;;;;18.70;11.30;;;;;;;12.01;85.15;90694.16;4956294;28;20028;-90
2021/09/09 04:32:50;;;;;;;20.13;11.43;;;;;;;12.11;84.80;90698.13;4957532;29;20026;-90
2021/09/09 04:35:15;;;;;;;16.98;10.60;;;;;;;12.12;84.65;90705.63;4940248;29;20031;-90
2021/09/09 04:37:41;;;;;;;16.58;11.25;;;;;;;11.98;84.69;90688.88;4939983;29;20042;-90
2021/09/09 04:40:06;;;;;;;19.50;10.18;;;;;;;11.85;83.50;90691.63;4924201;29;20032;-90
2021/09/09 04:42:32;;;;;;;20.88;11.60;;;;;;;11.57;84.59;90693.56;4955795;28;20025;-90
2021/09/09 04:44:57;;;;;;;20.05;11.05;;;;;;;11.70;85.13;90697.59;4943719;28;20031;-91
2021/09/09 04:47:23;;;;;;;14.70;10.48;;;;;;;11.71;85.56;90691.28;4966835;28;20546;-90
2021/09/09 04:49:48;;;;;;;15.70;9.68;;;;;;;11.55;85.09;90687.91;4938903;29;20031;-90
2021/09/09 04:52:13;;;;;;;21.02;11.45;;;;;;;11.71;85.13;90689.41;4955814;29;20023;-90
2021/09/09 04:54:39;;;;;;;16.50;10.57;;;;;;;11.64;84.99;90688.50;4939977;28;20031;-90
2021/09/09 04:57:05;;;;;;;18.95;10.63;;;;;;;11.58;85.94;90685.38;4939702;29;20031;-90
2021/09/09 04:59:30;;;;;;;14.38;10.15;;;;;;;11.47;86.55;90682.53;4923914;29;20039;-90
2021/09/09 05:01:55;;;;;;;17.75;12.10;;;;;;;11.74;85.26;90695.81;4956058;29;20060;-91
2021/09/09 05:04:21;;;;;;;19.15;12.27;;;;;;;11.79;84.85;90692.94;4939960;29;20039;-90
2021/09/09 05:06:46;;;;;;;16.92;10.75;;;;;;;11.96;83.94;90699.69;4940308;29;20074;-91
2021/09/09 05:09:12;;;;;;;19.13;11.38;;;;;;;12.01;83.88;90696.78;4981382;28;20007;-93
2021/09/09 05:11:37;;;;;;;16.63;10.98;;;;;;;11.88;84.19;90701.38;4965994;28;20019;-90
2021/09/09 05:14:03;;;;;;;16.48;10.35;;;;;;;11.89;83.83;90695.06;4944701;29;20027;-88
2021/09/09 05:16:28;;;;;;;17.88;10.43;;;;;;;12.20;82.60;90691.59;4943573;29;20038;-90
2021/09/09 05:18:54;;;;;;;16.23;11.10;;;;;;;12.26;82.44;90693.94;4939096;29;20038;-90
2021/09/09 05:21:19;;;;;;;19.48;10.93;;;;;;;12.36;82.07;90694.13;4923831;28;20368;-88
2021/09/09 05:23:45;;;;;;;19.77;10.45;;;;;;;12.47;81.55;90698.81;4938836;29;20050;-91
2021/09/09 05:26:10;;;;;;;16.23;10.32;;;;;;;12.57;81.47;90695.66;4942782;29;20027;-90
2021/09/09 05:28:35;;;;;;;17.42;10.30;;;;;;;12.53;81.72;90703.44;4955015;28;20046;-90
2021/09/09 05:31:01;;;;;;;17.88;10.00;;;;;;;12.54;82.52;90697.09;4955752;29;20023;-90
2021/09/09 05:33:26;;;;;;;14.68;9.98;;;;;;;12.57;81.20;90693.03;4955436;28;20112;-90
2021/09/09 05:35:52;;;;;;;15.27;9.93;;;;;;;13.06;77.23;90679.34;4938969;29;20518;-91
2021/09/09 05:38:17;;;;;;;15.02;9.40;;;;;;;13.22;77.09;90687.88;4954588;28;20038;-90
2021/09/09 05:40:42;;;;;;;13.32;9.85;;;;;;;13.13;78.42;90682.09;4970250;28;20038;-90
2021/09/09 05:43:08;;;;;;;16.88;9.43;;;;;;;12.98;78.47;90678.50;4954771;28;20027;-90
2021/09/09 05:45:33;;;;;;;18.73;9.88;;;;;;;12.90;79.78;90688.06;4925383;29;20082;-88
2021/09/09 05:47:59;;;;;;;15.13;10.20;;;;;;;12.66;81.03;90681.28;4938425;29;20023;-89
2021/09/09 05:50:24;;;;;;;15.60;9.98;;;;;;;12.79;79.92;90689.75;4938472;29;20457;-90
2021/09/09 05:52:50;;;;;;;15.23;9.60;;;;;;;13.01;79.24;90701.34;4938809;29;20027;-90
2021/09/09 05:55:15;;;;;;;16.20;9.82;;;;;;;13.33;76.71;90701.91;4938895;29;20038;-90
2021/09/09 05:57:41;;;;;;;14.25;9.63;;;;;;;13.44;77.27;90709.19;4955350;28;20038;-89
2021/09/09 06:00:07;;;;;;;18.95;10.55;;;;;;;13.54;77.93;90706.72;4954208;29;20057;-89
2021/09/09 06:02:33;;;;;;;15.13;9.82;;;;;;;13.48;78.69;90709.97;4938612;29;20401;-92
2021/09/09 06:04:59;;;;;;;16.80;10.15;;;;;;;13.58;78.73;90727.72;4964254;28;20058;-89
2021/09/09 06:07:26;;;;;;;15.05;9.18;;;;;;;13.60;77.38;90731.50;4973512;28;20026;-90
2021/09/09 06:09:51;;;;;;;15.65;10.18;;;;;;;13.74;76.60;90725.72;4957326;28;20475;-90
2021/09/09 06:12:17;;;;;;;17.58;9.90;;;;;;;14.01;76.76;90723.13;4952803;29;20082;-90
2021/09/09 06:14:42;;;;;;;16.30;9.70;;;;;;;14.10;76.42;90726.25;4937933;29;20031;-90
2021/09/09 06:17:08;;;;;;;15.95;9.98;;;;;;;14.19;78.65;90723.38;4937419;29;20042;-89
2021/09/09 06:19:33;;;;;;;15.05;10.57;;;;;;;14.09;79.07;90725.47;4942728;28;20495;-89
2021/09/09 06:21:59;;;;;;;15.95;10.65;;;;;;;14.12;81.70;90718.78;4953829;29;20385;-89
2021/09/09 06:24:25;;;;;;;16.75;10.32;;;;;;;14.12;81.00;90716.16;4953738;29;20506;-90
2021/09/09 06:26:50;;;;;;;14.43;9.90;;;;;;;14.08;81.07;90717.97;4959696;28;20549;-89
2021/09/09 06:29:16;;;;;;;18.63;10.25;;;;;;;14.17;81.50;90721.13;4975915;28;20022;-90
2021/09/09 06:31:41;;;;;;;15.70;10.38;;;;;;;14.17;80.13;90728.97;4992426;28;20030;-90
2021/09/09 06:34:07;;;;;;;13.43;7.30;;;;;;;14.34;70.64;90720.56;4959658;28;20030;-89
2021/09/09 06:36:32;;;;;;;11.90;8.15;;;;;;;14.34;72.65;90723.19;4946076;28;20038;-90
2021/09/09 06:38:57;;;;;;;12.07;8.43;;;;;;;14.66;72.77;90730.72;4938773;28;20022;-89
2021/09/09 06:41:23;;;;;;;14.90;8.30;;;;;;;14.60;73.82;90737.41;4946538;28;20027;-90
2021/09/09 06:43:48;;;;;;;15.98;9.40;;;;;;;14.59;73.99;90743.75;4970334;28;20031;-89
2021/09/09 06:46:14;;;;;;;14.65;7.13;;;;;;;15.04;64.06;90736.78;4953444;28;20031;-90
2021/09/09 06:48:39;;;;;;;17.10;9.60;;;;;;;14.90;73.57;90739.25;4927110;28;20030;-90
2021/09/09 06:51:04;;;;;;;16.88;10.05;;;;;;;14.81;75.12;90744.78;4953130;28;20030;-89
2021/09/09 06:53:30;;;;;;;14.00;8.85;;;;;;;14.70;75.43;90741.25;4955458;28;20049;-90
2021/09/09 06:55:56;;;;;;;11.38;8.20;;;;;;;14.70;74.04;90749.13;4933655;29;20031;-90
2021/09/09 06:58:21;;;;;;;14.13;8.23;;;;;;;14.87;70.78;90734.72;4948556;28;20039;-89
2021/09/09 07:00:47;;;;;;;14.13;10.38;;;;;;;14.78;77.45;90738.38;4971876;28;20027;-89
2021/09/09 07:03:12;;;;;;;16.80;9.95;;;;;;;14.75;78.53;90749.59;4952688;29;20400;-90
2021/09/09 07:05:38;;;;;;;22.42;10.60;;;;;;;14.73;78.99;90745.78;4939083;29;20030;-89
2021/09/09 07:08:03;;;;;;;12.55;8.93;;;;;;;14.77;78.74;90757.88;4946362;29;20034;-88
2021/09/09 07:10:29;;;;;;;12.50;7.40;;;;;;;15.06;66.29;90747.69;4953323;28;20102;-89
2021/09/09 07:12:54;;;;;;;12.68;8.00;;;;;;;15.52;65.00;90756.03;4929950;28;20031;-90
2021/09/09 07:15:20;;;;;;;13.52;6.97;;;;;;;15.54;63.94;90753.78;4970501;28;20058;-88
2021/09/09 07:17:45;;;;;;;10.95;6.78;;;;;;;15.58;62.88;90760.94;4919693;29;20125;-90
2021/09/09 07:20:11;;;;;;;10.40;6.38;;;;;;;15.98;58.93;90757.56;4926250;28;20019;-90
2021/09/09 07:22:36;;;;;;;10.60;6.53;;;;;;;15.90;61.63;90748.09;4954297;29;20042;-90
2021/09/09 07:25:03;;;;;;;11.80;7.70;;;;;;;15.74;68.89;90754.34;4936191;29;20023;-89
2021/09/09 07:27:28;;;;;;;13.25;7.05;;;;;;;15.63;63.41;90758.75;4933424;29;20034;-89
2021/09/09 07:29:53;;;;;;;11.35;6.47;;;;;;;15.81;62.89;90758.91;4950809;28;20031;-90
2021/09/09 07:32:19;;;;;;;12.02;6.88;;;;;;;15.96;62.47;90755.28;4952113;29;20023;-89
2021/09/09 07:34:44;;;;;;;11.00;6.40;;;;;;;16.12;62.86;90751.66;4952220;28;20034;-89
2021/09/09 07:37:10;;;;;;;11.35;6.68;;;;;;;16.30;61.50;90762.28;4968145;28;20023;-89
2021/09/09 07:39:35;;;;;;;10.07;6.88;;;;;;;16.38;63.50;90764.56;4935617;29;20038;-89
2021/09/09 07:42:00;;;;;;;9.35;6.20;;;;;;;16.41;58.72;90752.56;4967975;28;20475;-89
2021/09/09 07:44:26;;;;;;;9.88;6.43;;;;;;;16.67;58.81;90764.72;4952632;29;20104;-88
2021/09/09 07:46:51;;;;;;;10.82;6.35;;;;;;;16.60;61.21;90760.19;4953668;28;20030;-91
2021/09/09 07:49:17;;;;;;;9.55;6.28;;;;;;;16.78;57.80;90770.06;4939653;28;20394;-89
2021/09/09 07:51:43;;;;;;;13.65;6.70;;;;;;;16.71;58.89;90761.03;4939552;28;20050;-90
2021/09/09 07:54:08;;;;;;;12.90;6.78;;;;;;;16.73;60.56;90768.53;4955531;28;20080;-89
2021/09/09 07:56:34;;;;;;;10.50;6.18;;;;;;;16.96;55.59;90760.38;4972471;28;20403;-89
2021/09/09 07:58:59;;;;;;;8.70;5.57;;;;;;;17.01;56.35;90773.19;4964667;23;20417;-90
2021/09/09 08:01:25;;;;;;;9.13;5.80;;;;;;;17.17;54.25;90770.22;4937270;29;20503;-89
2021/09/09 08:03:50;;;;;;;8.77;5.80;;;;;;;17.14;53.96;90766.47;4936226;29;20034;-89
2021/09/09 08:06:16;;;;;;;8.93;5.43;;;;;;;17.19;54.49;90768.00;4921259;29;20026;-89
2021/09/09 08:08:42;;;;;;;12.75;6.10;;;;;;;17.11;55.58;90761.97;4920895;29;20031;-90
2021/09/09 08:11:07;;;;;;;11.52;6.03;;;;;;;17.18;54.69;90769.88;4935836;29;20521;-90
2021/09/09 08:13:33;;;;;;;9.30;6.22;;;;;;;17.34;52.57;90779.31;4918199;29;20034;-91
2021/09/09 08:15:59;;;;;;;9.30;5.80;;;;;;;17.43;51.08;90775.22;4951531;28;20222;-89
2021/09/09 08:18:24;;;;;;;9.27;5.80;;;;;;;17.45;51.71;90777.47;4920852;29;20504;-89
2021/09/09 08:20:51;;;;;;;9.98;5.75;;;;;;;17.56;51.35;90780.91;4919927;29;20023;-88
2021/09/09 08:23:16;;;;;;;9.32;5.50;;;;;;;17.53;50.09;90776.38;4920229;29;20034;-88
2021/09/09 08:25:42;;;;;;;7.88;5.90;;;;;;;17.51;51.47;90777.88;4951923;28;20027;-88
2021/09/09 08:28:07;;;;;;;11.10;5.53;;;;;;;17.49;49.70;90769.56;4953509;28;20376;-88
2021/09/09 08:30:32;;;;;;;9.30;6.00;;;;;;;17.55;51.08;90774.09;4968900;28;20082;-91
2021/09/09 08:32:58;;;;;;;8.10;5.63;;;;;;;17.60;51.02;90780.91;4969149;28;20023;-87
2021/09/09 08:35:24;;;;;;;9.10;5.53;;;;;;;17.54;50.69;90785.03;4952077;29;20510;-87
2021/09/09 08:37:50;;;;;;;8.88;5.63;;;;;;;17.64;50.50;90787.69;4951881;28;20023;-87
2021/09/09 08:40:15;;;;;;;9.38;5.72;;;;;;;17.60;50.90;90780.91;4952556;28;20034;-86
2021/09/09 08:42:42;;;;;;;9.07;5.80;;;;;;;17.48;49.68;90781.25;4953282;28;20062;-87
2021/09/09 08:45:08;;;;;;;9.55;5.90;;;;;;;17.53;50.61;90786.91;4937130;28;20023;-87
2021/09/09 08:47:35;;;;;;;7.82;5.32;;;;;;;17.57;51.46;90781.66;4953654;29;20127;-86
2021/09/09 08:50:00;;;;;;;12.15;5.90;;;;;;;17.68;50.70;90785.06;4937371;29;20023;-87
2021/09/09 08:52:25;;;;;;;12.65;5.88;;;;;;;17.63;50.44;90788.03;4952819;29;20439;-86
2021/09/09 08:54:51;;;;;;;8.85;5.60;;;;;;;17.62;50.45;90783.91;4952807;28;20030;-87
2021/09/09 08:57:20;;;;;;;8.65;5.85;;;;;;;17.75;49.70;90792.22;4937243;29;20027;-87
2021/09/09 08:59:45;;;;;;;8.60;5.72;;;;;;;17.74;49.75;90796.75;4968720;28;20039;-86
2021/09/09 09:02:11;;;;;;;9.07;5.78;;;;;;;17.86;50.70;90793.75;4952487;28;20027;-87
2021/09/09 09:04:37;;;;;;;8.27;5.72;;;;;;;17.77;49.27;90789.97;4969083;28;20034;-87
2021/09/09 09:07:03;;;;;;;7.35;5.35;;;;;;;17.85;49.49;90789.63;4936411;28;20027;-89
2021/09/09 09:09:32;;;;;;;12.90;5.68;;;;;;;17.97;50.32;90804.31;4937476;29;20027;-87
2021/09/09 09:11:57;;;;;;;10.05;5.63;;;;;;;18.02;48.59;90798.69;4937681;28;20023;-87
2021/09/09 09:14:25;;;;;;;9.45;5.68;;;;;;;17.94;50.54;90799.78;4953735;28;20050;-87
2021/09/09 09:16:52;;;;;;;7.35;5.57;;;;;;;18.04;48.50;90787.75;4940420;29;20450;-87
2021/09/09 09:19:22;;;;;;;11.18;5.97;;;;;;;18.01;48.91;90799.03;4956897;28;20031;-86
2021/09/09 09:21:54;;;;;;;10.13;5.85;;;;;;;18.22;50.72;90798.28;4956251;29;20395;-86
2021/09/09 09:24:19;;;;;;;8.43;5.50;;;;;;;18.29;48.23;90795.66;4941077;29;20118;-88
2021/09/09 09:27:04;;;;;;;9.45;5.95;;;;;;;18.29;48.62;90793.78;4940209;28;20114;-88
2021/09/09 09:29:30;;;;;;;7.18;5.50;;;;;;;18.25;49.35;90792.28;4939250;29;20127;-87
2021/09/09 09:32:07;;;;;;;9.85;5.45;;;;;;;18.33;48.72;90799.78;4956279;29;20054;-87
2021/09/09 09:34:32;;;;;;;7.72;5.40;;;;;;;18.34;49.87;90798.69;4939721;28;20031;-90
2021/09/09 09:36:57;;;;;;;7.32;5.07;;;;;;;18.43;50.92;90803.56;4955708;29;20031;-88
2021/09/09 09:39:23;;;;;;;8.52;5.68;;;;;;;18.61;49.05;90803.53;4955367;28;20023;-87
2021/09/09 09:41:54;;;;;;;8.30;5.55;;;;;;;18.43;48.04;90806.19;4955691;28;20587;-87
2021/09/09 09:44:38;;;;;;;7.57;5.05;;;;;;;18.55;48.44;90805.81;4956402;28;20106;-87
2021/09/09 09:47:13;;;;;;;9.68;5.65;;;;;;;18.63;50.54;90802.03;4939680;28;20372;-89
2021/09/09 09:49:42;;;;;;;9.95;5.30;;;;;;;18.62;50.33;90805.81;4939111;29;20487;-87
2021/09/09 09:52:08;;;;;;;7.28;5.60;;;;;;;18.62;48.92;90811.09;4971427;28;20090;-87
2021/09/09 09:54:35;;;;;;;9.55;5.75;;;;;;;18.55;53.44;90811.09;4920525;29;20036;-92
2021/09/09 09:57:00;;;;;;;7.40;5.05;;;;;;;18.60;49.24;90802.78;4955685;29;20027;-87
2021/09/09 09:59:26;;;;;;;7.55;5.43;;;;;;;18.52;48.56;90795.28;4939362;29;20086;-89
2021/09/09 10:01:51;;;;;;;12.13;5.30;;;;;;;18.56;48.69;90806.56;4939294;29;20030;-87
2021/09/09 10:04:18;;;;;;;11.23;5.45;;;;;;;18.47;48.14;90800.91;4939039;29;20391;-88
2021/09/09 10:06:44;;;;;;;8.88;5.55;;;;;;;18.49;49.61;90802.06;4955036;29;20127;-87
2021/09/09 10:09:10;;;;;;;11.00;5.40;;;;;;;18.57;49.75;90805.44;4939349;29;20023;-89
2021/09/09 10:11:35;;;;;;;9.63;5.90;;;;;;;18.42;49.84;90802.06;4955191;29;20398;-87
2021/09/09 10:14:02;;;;;;;7.82;5.30;;;;;;;18.60;47.93;90802.78;4939372;29;20020;-86
2021/09/09 10:16:29;;;;;;;8.40;5.03;;;;;;;18.48;49.31;90795.28;4923844;29;20074;-88
2021/09/09 10:18:55;;;;;;;8.60;5.60;;;;;;;18.60;48.04;90800.16;4955208;29;20062;-87
2021/09/09 10:21:40;;;;;;;8.82;5.40;;;;;;;18.67;49.46;90796.00;4954894;29;20023;-87
2021/09/09 10:24:18;;;;;;;10.77;5.30;;;;;;;18.77;48.72;90801.28;4954424;29;20035;-87
2021/09/09 10:26:48;;;;;;;7.15;5.28;;;;;;;18.72;50.66;90798.28;4938069;29;20023;-86
2021/09/09 10:29:46;;;;;;;10.15;5.28;;;;;;;18.73;50.39;90805.81;4938831;28;20055;-87
2021/09/09 10:32:31;;;;;;;8.60;5.75;;;;;;;18.72;49.35;90808.81;4939496;29;20023;-87
2021/09/09 10:35:15;;;;;;;8.70;5.57;;;;;;;18.75;50.85;90808.06;4954720;28;20031;-88
2021/09/09 10:37:44;;;;;;;7.70;5.65;;;;;;;18.78;50.28;90808.06;4954133;28;20023;-88
2021/09/09 10:40:28;;;;;;;7.28;5.57;;;;;;;18.79;49.88;90814.09;4970373;28;20661;-87
2021/09/09 10:42:54;;;;;;;8.23;5.28;;;;;;;18.88;50.12;90806.53;4955309;29;20019;-88
2021/09/09 10:45:38;;;;;;;7.07;5.53;;;;;;;19.04;49.82;90806.84;4970411;28;20046;-87
2021/09/09 10:48:15;;;;;;;10.80;6.05;;;;;;;18.95;49.31;90806.53;4955086;29;20050;-86
2021/09/09 10:50:41;;;;;;;6.22;5.25;;;;;;;19.07;49.62;90802.69;4954127;29;20211;-88
2021/09/09 10:53:07;;;;;;;8.27;6.20;;;;;;;19.04;50.67;90804.22;4952109;29;20134;-88
2021/09/09 10:55:36;;;;;;;9.15;5.82;;;;;;;19.19;49.97;90806.84;4938247;29;20034;-86
2021/09/09 10:58:20;;;;;;;9.75;5.90;;;;;;;19.26;49.11;90809.44;4938640;29;20551;-86
2021/09/09 11:01:12;;;;;;;10.50;5.93;;;;;;;19.28;49.34;90801.88;4954512;29;20035;-88
2021/09/09 11:03:36;;;;;;;9.38;5.78;;;;;;;19.25;50.48;90810.56;4954468;28;20079;-89
2021/09/09 11:06:03;;;;;;;8.27;5.90;;;;;;;19.23;49.77;90799.66;4954552;28;20040;-87
2021/09/09 11:08:29;;;;;;;9.27;5.15;;;;;;;19.47;49.23;90801.44;4953170;29;20023;-87
2021/09/09 11:10:54;;;;;;;9.23;5.90;;;;;;;19.47;50.67;90804.06;4953488;29;20031;-88
2021/09/09 11:13:25;;;;;;;8.43;5.65;;;;;;;19.57;51.34;90803.25;4953903;29;20023;-86
2021/09/09 11:15:50;;;;;;;7.85;5.80;;;;;;;19.57;47.76;90803.25;4954421;29;20023;-86
2021/09/09 11:18:26;;;;;;;7.55;5.50;;;;;;;19.67;49.26;90800.97;4970384;28;20043;-88
2021/09/09 11:21:01;;;;;;;8.02;5.40;;;;;;;19.79;49.98;90803.94;4922774;29;20073;-88